Time;durP1;ratioP1;P1;durP2;ratioP2;P2;SDS_P1;SDS_P2;PMS_P1;PMS_P2;Temp;Humidity;BMP_temperature;BMP_pressure;BME280_temperature;BME280_humidity;BME280_pressure;Samples;Min_cycle;Max_cycle;Signal;HPM_P1;HPM_P2
2023/06/27 00:00:50;;;;;;;2.47;1.30;;;;;24.90;100928.00;;;;2049787;28;20317;-67
2023/06/27 00:01:50;;;;;;;3.43;1.27;;;;;24.90;100937.00;;;;2066468;28;20572;-67
2023/06/27 00:02:53;;;;;;;2.20;1.17;;;;;24.90;100934.00;;;;2061215;28;20635;-67
2023/06/27 00:03:53;;;;;;;1.70;1.10;;;;;24.90;100931.00;;;;2059203;28;20302;-67
2023/06/27 00:04:56;;;;;;;1.60;1.20;;;;;24.90;100928.00;;;;2060299;28;20462;-67
2023/06/27 00:06:00;;;;;;;1.40;1.20;;;;;24.90;100932.00;;;;2048032;28;20215;-67
2023/06/27 00:07:00;;;;;;;2.10;1.20;;;;;24.90;100933.00;;;;2061141;28;20473;-67
2023/06/27 00:08:01;;;;;;;2.40;1.17;;;;;24.90;100937.00;;;;2064925;28;20970;-67
2023/06/27 00:09:05;;;;;;;2.07;1.30;;;;;24.90;100936.00;;;;2064847;28;20646;-67
2023/06/27 00:10:06;;;;;;;1.30;1.00;;;;;24.90;100928.00;;;;2062466;28;20496;-67
2023/06/27 00:11:06;;;;;;;1.43;0.97;;;;;24.90;100939.00;;;;2046629;28;20498;-67
2023/06/27 00:12:07;;;;;;;1.13;1.03;;;;;24.90;100935.00;;;;2063048;28;20938;-67
2023/06/27 00:13:15;;;;;;;1.37;1.10;;;;;24.90;100935.00;;;;2066507;28;20771;-67
2023/06/27 00:14:18;;;;;;;1.85;1.23;;;;;24.90;100937.00;;;;2064112;28;20477;-67
2023/06/27 00:15:19;;;;;;;2.10;1.20;;;;;24.90;100932.00;;;;2062944;28;20314;-67
2023/06/27 00:16:20;;;;;;;1.50;1.20;;;;;24.90;100932.00;;;;2051475;28;20219;-67
2023/06/27 00:17:23;;;;;;;1.97;1.30;;;;;24.90;100938.00;;;;2063422;28;20209;-67
2023/06/27 00:18:23;;;;;;;2.00;1.17;;;;;24.90;100929.00;;;;2066238;28;20453;-67
2023/06/27 00:19:23;;;;;;;1.30;1.20;;;;;24.90;100937.00;;;;2062894;28;20461;-67
2023/06/27 00:20:25;;;;;;;2.63;1.50;;;;;24.90;100936.00;;;;2068381;28;20206;-67
2023/06/27 00:21:28;;;;;;;2.03;1.17;;;;;24.90;100936.00;;;;2048289;28;20223;-67
2023/06/27 00:22:29;;;;;;;1.53;1.20;;;;;24.90;100938.00;;;;2057421;28;20454;-67
2023/06/27 00:23:33;;;;;;;3.93;1.37;;;;;24.90;100943.00;;;;2067019;28;21047;-67
2023/06/27 00:24:33;;;;;;;1.77;0.90;;;;;24.90;100944.00;;;;2060452;28;20223;-67
2023/06/27 00:25:33;;;;;;;1.37;1.20;;;;;24.90;100942.00;;;;2057555;28;20464;-67
2023/06/27 00:26:34;;;;;;;1.60;1.20;;;;;24.90;100943.00;;;;2050503;28;20212;-67
2023/06/27 00:27:34;;;;;;;1.93;1.37;;;;;24.90;100937.00;;;;2057809;28;20224;-67
2023/06/27 00:28:34;;;;;;;1.43;1.07;;;;;24.90;100944.00;;;;2061432;28;20692;-67
2023/06/27 00:29:35;;;;;;;2.57;1.33;;;;;24.90;100939.00;;;;2061020;28;20211;-67
2023/06/27 00:30:35;;;;;;;1.77;1.20;;;;;24.90;100936.00;;;;2062580;28;20222;-67
2023/06/27 00:31:35;;;;;;;1.80;1.20;;;;;24.90;100943.00;;;;2050456;28;20246;-67
2023/06/27 00:32:36;;;;;;;1.80;1.20;;;;;24.90;100940.00;;;;2059295;28;20207;-67
2023/06/27 00:33:36;;;;;;;1.43;1.10;;;;;24.90;100950.00;;;;2060133;28;20243;-67
2023/06/27 00:34:36;;;;;;;1.40;1.30;;;;;24.90;100939.00;;;;2063255;28;20707;-67
2023/06/27 00:35:40;;;;;;;1.93;1.30;;;;;24.90;100944.00;;;;2060613;28;20216;-67
2023/06/27 00:36:40;;;;;;;1.73;1.00;;;;;24.90;100940.00;;;;2054120;28;20258;-67
2023/06/27 00:37:40;;;;;;;2.00;1.40;;;;;24.80;100935.00;;;;2058751;28;20481;-67
2023/06/27 00:38:40;;;;;;;3.20;1.50;;;;;24.90;100939.00;;;;2063306;28;20231;-67
2023/06/27 00:39:41;;;;;;;2.73;1.27;;;;;24.90;100938.00;;;;2064004;28;20238;-67
2023/06/27 00:40:41;;;;;;;2.43;1.20;;;;;24.90;100944.00;;;;2064874;28;20702;-67
2023/06/27 00:41:42;;;;;;;1.80;1.40;;;;;24.80;100953.00;;;;2062888;28;20236;-67
2023/06/27 00:42:42;;;;;;;1.30;1.10;;;;;24.90;100942.00;;;;2066901;28;20214;-67
2023/06/27 00:43:42;;;;;;;1.27;1.17;;;;;24.90;100938.00;;;;2063313;28;20579;-67
2023/06/27 00:44:43;;;;;;;1.47;1.17;;;;;24.90;100938.00;;;;2066410;28;20488;-67
2023/06/27 00:45:43;;;;;;;1.60;1.23;;;;;24.90;100944.00;;;;2057325;28;20575;-67
2023/06/27 00:46:43;;;;;;;1.90;1.23;;;;;24.90;100946.00;;;;2064419;28;20220;-67
2023/06/27 00:47:44;;;;;;;2.57;1.30;;;;;24.90;100941.00;;;;2048324;28;20271;-67
2023/06/27 00:48:44;;;;;;;1.50;1.20;;;;;24.90;100928.00;;;;2038797;29;20251;-67
2023/06/27 00:49:45;;;;;;;1.43;1.10;;;;;24.90;100934.00;;;;2041035;28;20220;-67
2023/06/27 00:50:45;;;;;;;2.27;1.20;;;;;24.90;100936.00;;;;2038244;28;20227;-67
2023/06/27 00:51:46;;;;;;;1.50;1.13;;;;;24.90;100935.00;;;;2057888;28;20254;-67
2023/06/27 00:52:46;;;;;;;1.27;1.00;;;;;24.80;100939.00;;;;2063406;28;20337;-67
2023/06/27 00:53:47;;;;;;;1.80;1.30;;;;;24.90;100923.00;;;;2065097;28;20709;-67
2023/06/27 00:54:47;;;;;;;2.43;1.33;;;;;24.80;100943.00;;;;2058018;28;20671;-67
2023/06/27 00:55:47;;;;;;;2.63;1.30;;;;;24.90;100937.00;;;;2037190;28;20967;-67
2023/06/27 00:56:49;;;;;;;1.40;0.93;;;;;24.90;100938.00;;;;2044482;28;20817;-67
2023/06/27 00:57:49;;;;;;;1.97;1.17;;;;;24.80;100937.00;;;;2053524;28;20651;-67
2023/06/27 00:58:50;;;;;;;2.30;1.23;;;;;24.90;100940.00;;;;2048670;28;20481;-67
2023/06/27 00:59:50;;;;;;;1.80;1.27;;;;;24.80;100934.00;;;;2037943;28;20251;-67
2023/06/27 01:00:50;;;;;;;2.33;1.30;;;;;24.80;100943.00;;;;2031626;28;20213;-67
2023/06/27 01:01:51;;;;;;;1.63;1.10;;;;;24.80;100938.00;;;;2061530;28;20211;-67
2023/06/27 01:02:51;;;;;;;1.90;1.13;;;;;24.80;100934.00;;;;2058490;28;20669;-67
2023/06/27 01:03:52;;;;;;;2.07;1.53;;;;;24.80;100937.00;;;;2062846;28;20242;-67
2023/06/27 01:04:53;;;;;;;1.90;1.27;;;;;24.80;100915.00;;;;2060871;28;20584;-67
2023/06/27 01:05:53;;;;;;;2.07;1.00;;;;;24.80;100936.00;;;;2040118;28;20212;-67
2023/06/27 01:07:12;;;;;;;2.10;1.37;;;;;24.80;100932.00;;;;2043599;28;20448;-67
2023/06/27 01:08:14;;;;;;;1.53;1.20;;;;;24.80;100937.00;;;;2054286;28;20215;-67
2023/06/27 01:09:20;;;;;;;2.50;1.30;;;;;24.80;100936.00;;;;2046927;28;20467;-67
2023/06/27 01:10:28;;;;;;;2.95;1.25;;;;;24.80;100926.00;;;;2054339;28;20274;-67
2023/06/27 01:11:32;;;;;;;2.73;1.30;;;;;24.80;100902.00;;;;2049071;28;20277;-67
2023/06/27 01:12:42;;;;;;;2.07;1.30;;;;;24.80;100932.00;;;;2045750;28;20452;-67
2023/06/27 01:13:46;;;;;;;1.77;1.47;;;;;24.80;100933.00;;;;2053087;28;20460;-67
2023/06/27 01:14:47;;;;;;;1.20;1.00;;;;;24.80;100934.00;;;;2056422;28;20545;-67
2023/06/27 01:15:47;;;;;;;1.60;1.03;;;;;24.80;100933.00;;;;2028915;28;20662;-67
2023/06/27 01:16:48;;;;;;;2.40;1.30;;;;;24.80;100933.00;;;;2041179;28;20553;-67
2023/06/27 01:17:48;;;;;;;1.90;1.17;;;;;24.80;100939.00;;;;2056456;28;20328;-67
2023/06/27 01:18:48;;;;;;;1.80;1.23;;;;;24.80;100930.00;;;;2061805;28;20241;-67
2023/06/27 01:19:52;;;;;;;1.80;1.50;;;;;24.80;100937.00;;;;2052208;28;20208;-67
2023/06/27 01:20:52;;;;;;;1.48;1.35;;;;;24.80;100899.00;;;;2037023;28;20240;-67
2023/06/27 01:21:56;;;;;;;1.47;1.00;;;;;24.80;100902.00;;;;2047819;28;20212;-67
2023/06/27 01:23:20;;;;;;;2.03;1.40;;;;;24.80;100929.00;;;;2043432;28;20212;-67
2023/06/27 01:24:21;;;;;;;4.03;1.30;;;;;24.80;100932.00;;;;2062328;28;21025;-67
2023/06/27 01:25:21;;;;;;;1.20;1.10;;;;;24.80;100931.00;;;;2046472;28;20219;-67
2023/06/27 01:26:22;;;;;;;2.00;1.40;;;;;24.80;100932.00;;;;2034280;28;20240;-67
2023/06/27 01:27:22;;;;;;;1.50;1.20;;;;;24.80;100928.00;;;;2039776;28;20213;-67
2023/06/27 01:28:23;;;;;;;2.20;2.00;;;;;24.80;100926.00;;;;2065664;28;20215;-67
2023/06/27 01:29:24;;;;;;;2.10;1.00;;;;;24.80;100934.00;;;;2060022;28;20221;-67
2023/06/27 01:30:25;;;;;;;3.00;1.23;;;;;24.80;100931.00;;;;2055472;28;20302;-67
2023/06/27 01:31:48;;;;;;;2.53;1.80;;;;;24.80;100926.00;;;;2051941;28;20481;-67
2023/06/27 01:32:53;;;;;;;2.00;1.47;;;;;24.80;100929.00;;;;2048305;28;20216;-67
2023/06/27 01:34:03;;;;;;;2.17;1.33;;;;;24.80;100930.00;;;;2055252;28;20460;-67
2023/06/27 01:35:04;;;;;;;2.43;1.17;;;;;24.80;100925.00;;;;2065695;28;20891;-67
2023/06/27 01:36:09;;;;;;;1.40;1.30;;;;;24.80;100928.00;;;;2058374;28;20587;-67
2023/06/27 01:37:11;;;;;;;1.37;1.13;;;;;24.80;100915.00;;;;2049664;28;20470;-67
2023/06/27 01:38:17;;;;;;;1.50;1.13;;;;;24.80;100918.00;;;;2041279;28;20460;-68
2023/06/27 01:39:19;;;;;;;1.87;1.17;;;;;24.80;100921.00;;;;2052887;28;20219;-67
2023/06/27 01:40:19;;;;;;;2.07;1.20;;;;;24.80;100918.00;;;;2045106;28;20550;-67
2023/06/27 01:41:20;;;;;;;1.97;1.50;;;;;24.80;100896.00;;;;2037272;29;20995;-67
2023/06/27 01:42:27;;;;;;;3.63;1.57;;;;;24.80;100922.00;;;;2043477;28;20360;-67
2023/06/27 01:43:27;;;;;;;2.05;1.20;;;;;24.80;100912.00;;;;2055358;28;20221;-67
2023/06/27 01:44:27;;;;;;;1.50;1.23;;;;;24.80;100921.00;;;;2054241;28;20774;-67
2023/06/27 01:45:27;;;;;;;2.83;1.53;;;;;24.70;100913.00;;;;2054373;28;21047;-67
2023/06/27 01:46:28;;;;;;;1.77;1.30;;;;;24.80;100915.00;;;;2038292;28;20763;-67
2023/06/27 01:47:28;;;;;;;1.90;1.27;;;;;24.80;100920.00;;;;2055533;28;20207;-67
2023/06/27 01:48:28;;;;;;;2.07;1.40;;;;;24.80;100919.00;;;;2057810;28;20219;-67
2023/06/27 01:49:29;;;;;;;1.40;1.30;;;;;24.70;100921.00;;;;2044941;28;20212;-67
2023/06/27 01:50:29;;;;;;;2.00;1.30;;;;;24.80;100917.00;;;;2053262;28;20821;-67
2023/06/27 01:51:29;;;;;;;2.07;1.30;;;;;24.80;100917.00;;;;2029615;29;20229;-67
2023/06/27 01:52:30;;;;;;;3.90;1.70;;;;;24.70;100906.00;;;;2039783;29;20819;-67
2023/06/27 01:53:30;;;;;;;2.27;1.63;;;;;24.70;100911.00;;;;2057254;28;20208;-67
2023/06/27 01:54:30;;;;;;;2.07;1.30;;;;;24.80;100907.00;;;;2063103;28;20239;-67
2023/06/27 01:55:32;;;;;;;2.53;1.50;;;;;24.80;100901.00;;;;2058520;28;20217;-67
2023/06/27 01:56:33;;;;;;;1.90;1.27;;;;;24.80;100901.00;;;;2050191;28;20226;-67
2023/06/27 01:57:33;;;;;;;1.60;1.50;;;;;24.70;100900.00;;;;2068411;28;20467;-67
2023/06/27 01:58:33;;;;;;;1.33;1.00;;;;;24.80;100908.00;;;;2062693;28;20698;-67
2023/06/27 01:59:34;;;;;;;2.30;1.33;;;;;24.80;100910.00;;;;2062500;28;20235;-67
2023/06/27 02:00:34;;;;;;;1.70;1.20;;;;;24.80;100910.00;;;;2064718;28;20237;-67
2023/06/27 02:01:34;;;;;;;2.50;1.40;;;;;24.80;100904.00;;;;2053241;28;20293;-68
2023/06/27 02:02:34;;;;;;;2.10;1.37;;;;;24.80;100910.00;;;;2070298;28;20242;-67
2023/06/27 02:03:35;;;;;;;2.87;1.47;;;;;24.80;100904.00;;;;2064067;28;20239;-67
2023/06/27 02:04:35;;;;;;;2.00;1.20;;;;;24.80;100910.00;;;;2057798;28;20218;-67
2023/06/27 02:05:35;;;;;;;1.63;1.33;;;;;24.80;100914.00;;;;2067489;28;20214;-67
2023/06/27 02:06:36;;;;;;;1.57;1.10;;;;;24.80;100907.00;;;;2049606;28;20583;-67
2023/06/27 02:07:36;;;;;;;2.23;1.30;;;;;24.80;100911.00;;;;2060722;28;20633;-67
2023/06/27 02:08:37;;;;;;;2.27;1.07;;;;;24.80;100909.00;;;;2063070;28;20792;-67
2023/06/27 02:09:37;;;;;;;2.03;1.33;;;;;24.80;100906.00;;;;2059925;28;20219;-67
2023/06/27 02:10:37;;;;;;;2.20;1.40;;;;;24.80;100903.00;;;;2063750;28;20278;-67
2023/06/27 02:11:38;;;;;;;2.50;1.20;;;;;24.70;100906.00;;;;2054503;28;20215;-67
2023/06/27 02:12:38;;;;;;;2.10;1.33;;;;;24.80;100914.00;;;;2061727;28;20231;-67
2023/06/27 02:13:39;;;;;;;2.90;1.40;;;;;24.80;100899.00;;;;2067899;28;20210;-67
2023/06/27 02:14:39;;;;;;;1.73;1.30;;;;;24.70;100909.00;;;;2059924;28;20215;-67
2023/06/27 02:15:40;;;;;;;3.30;1.43;;;;;24.80;100904.00;;;;2055864;28;20218;-67
2023/06/27 02:16:40;;;;;;;1.80;1.27;;;;;24.70;100909.00;;;;2049674;28;20545;-67
2023/06/27 02:17:40;;;;;;;1.30;1.00;;;;;24.80;100904.00;;;;2057517;28;20219;-67
2023/06/27 02:18:41;;;;;;;2.37;1.50;;;;;24.80;100900.00;;;;2068693;28;20928;-67
2023/06/27 02:19:41;;;;;;;2.17;1.33;;;;;24.80;100902.00;;;;2062065;28;20773;-67
2023/06/27 02:20:41;;;;;;;2.03;1.30;;;;;24.80;100901.00;;;;2054023;28;20267;-67
2023/06/27 02:21:43;;;;;;;2.10;1.90;;;;;24.80;100898.00;;;;2050593;28;20215;-67
2023/06/27 02:22:43;;;;;;;3.38;1.60;;;;;24.80;100902.00;;;;2060365;28;20270;-67
2023/06/27 02:23:43;;;;;;;1.87;1.13;;;;;24.70;100902.00;;;;2051629;28;20205;-67
2023/06/27 02:24:44;;;;;;;2.50;1.60;;;;;24.70;100901.00;;;;2046454;28;20773;-67
2023/06/27 02:25:44;;;;;;;2.53;1.43;;;;;24.70;100895.00;;;;2047652;28;20274;-67
2023/06/27 02:26:44;;;;;;;2.30;1.67;;;;;24.70;100907.00;;;;2055240;28;20211;-67
2023/06/27 02:27:45;;;;;;;1.53;1.43;;;;;24.70;100906.00;;;;2053718;28;20238;-67
2023/06/27 02:28:45;;;;;;;1.90;1.30;;;;;24.70;100905.00;;;;2060258;28;20208;-67
2023/06/27 02:29:45;;;;;;;2.20;1.47;;;;;24.70;100892.00;;;;2062057;28;20212;-67
2023/06/27 02:30:46;;;;;;;1.77;1.30;;;;;24.70;100900.00;;;;2052918;28;20215;-67
2023/06/27 02:31:46;;;;;;;1.90;1.63;;;;;24.70;100896.00;;;;2065072;28;20689;-67
2023/06/27 02:32:46;;;;;;;1.40;1.23;;;;;24.70;100893.00;;;;2059375;28;20218;-67
2023/06/27 02:33:47;;;;;;;2.10;1.40;;;;;24.70;100899.00;;;;2059784;28;20212;-67
2023/06/27 02:34:47;;;;;;;1.80;1.23;;;;;24.70;100901.00;;;;2064283;28;20231;-67
2023/06/27 02:35:47;;;;;;;2.13;1.20;;;;;24.70;100896.00;;;;2055885;28;20214;-67
2023/06/27 02:36:48;;;;;;;1.83;1.37;;;;;24.80;100894.00;;;;2064867;28;20216;-67
2023/06/27 02:37:49;;;;;;;2.67;1.50;;;;;24.80;100892.00;;;;2062861;28;20262;-67
2023/06/27 02:38:49;;;;;;;2.30;1.35;;;;;24.70;100893.00;;;;2062867;28;20211;-67
2023/06/27 02:39:52;;;;;;;2.20;1.60;;;;;24.70;100894.00;;;;2065048;28;20204;-67
2023/06/27 02:40:52;;;;;;;2.93;1.50;;;;;24.70;100897.00;;;;2050184;28;20200;-67
2023/06/27 02:41:53;;;;;;;1.60;1.50;;;;;24.80;100892.00;;;;2055652;28;20977;-67
2023/06/27 02:42:53;;;;;;;2.30;1.57;;;;;24.70;100894.00;;;;2063679;28;20671;-67
2023/06/27 02:43:53;;;;;;;3.17;1.50;;;;;24.70;100900.00;;;;2065613;28;20702;-67
2023/06/27 02:44:54;;;;;;;3.73;1.57;;;;;24.70;100897.00;;;;2065602;28;20203;-67
2023/06/27 02:45:54;;;;;;;2.60;1.43;;;;;24.70;100895.00;;;;2054450;28;20195;-67
2023/06/27 02:46:54;;;;;;;3.23;1.30;;;;;24.70;100891.00;;;;2063189;28;20213;-67
2023/06/27 02:47:55;;;;;;;4.07;1.83;;;;;24.70;100896.00;;;;2059561;28;20204;-67
2023/06/27 02:48:55;;;;;;;2.13;1.50;;;;;24.70;100889.00;;;;2065297;28;20261;-67
2023/06/27 02:49:55;;;;;;;2.20;1.40;;;;;24.70;100884.00;;;;2059893;28;20199;-67
2023/06/27 02:50:56;;;;;;;2.50;1.90;;;;;24.70;100899.00;;;;2052141;28;20264;-67
2023/06/27 02:51:57;;;;;;;2.50;1.50;;;;;24.70;100891.00;;;;2059336;28;20211;-67
2023/06/27 02:52:57;;;;;;;2.37;1.73;;;;;24.70;100897.00;;;;2064196;28;20450;-67
2023/06/27 02:53:57;;;;;;;2.33;1.40;;;;;24.70;100893.00;;;;2060566;28;20203;-67
2023/06/27 02:54:58;;;;;;;2.10;1.60;;;;;24.70;100904.00;;;;2060076;28;20282;-67
2023/06/27 02:56:02;;;;;;;1.97;1.37;;;;;24.70;100897.00;;;;2056299;28;20227;-67
2023/06/27 02:57:02;;;;;;;3.05;1.55;;;;;24.70;100899.00;;;;2063374;28;20298;-67
2023/06/27 02:58:03;;;;;;;2.60;1.87;;;;;24.70;100908.00;;;;2058393;28;20716;-67
2023/06/27 02:59:03;;;;;;;2.37;1.30;;;;;24.70;100907.00;;;;2061954;28;20761;-67
2023/06/27 03:00:05;;;;;;;2.37;1.57;;;;;24.70;100899.00;;;;2060939;28;20751;-67
2023/06/27 03:01:08;;;;;;;2.28;1.60;;;;;24.60;100900.00;;;;2048541;28;20239;-67
2023/06/27 03:02:08;;;;;;;3.00;1.75;;;;;24.70;100900.00;;;;2057041;28;20219;-67
2023/06/27 03:03:08;;;;;;;1.73;1.40;;;;;24.70;100894.00;;;;2063700;28;20227;-67
2023/06/27 03:04:09;;;;;;;2.37;1.33;;;;;24.70;100900.00;;;;2063960;28;20219;-67
2023/06/27 03:05:09;;;;;;;2.00;1.60;;;;;24.70;100897.00;;;;2061261;28;20350;-67
2023/06/27 03:06:10;;;;;;;1.87;1.40;;;;;24.70;100903.00;;;;2049622;28;20214;-67
2023/06/27 03:07:10;;;;;;;1.80;1.30;;;;;24.70;100899.00;;;;2049857;28;20712;-67
2023/06/27 03:08:10;;;;;;;2.10;1.47;;;;;24.70;100896.00;;;;2052287;28;20648;-67
2023/06/27 03:09:11;;;;;;;2.60;1.73;;;;;24.70;100899.00;;;;2063312;28;20760;-67
2023/06/27 03:10:11;;;;;;;2.40;1.53;;;;;24.70;100897.00;;;;2063789;28;20725;-67
2023/06/27 03:11:12;;;;;;;2.60;1.53;;;;;24.70;100900.00;;;;2051169;28;20219;-67
2023/06/27 03:12:12;;;;;;;2.67;1.60;;;;;24.60;100908.00;;;;2057277;28;20584;-67
2023/06/27 03:13:12;;;;;;;2.27;1.50;;;;;24.70;100905.00;;;;2058006;28;20229;-67
2023/06/27 03:14:17;;;;;;;2.33;1.63;;;;;24.60;100903.00;;;;2056333;28;20219;-67
2023/06/27 03:15:17;;;;;;;1.73;1.52;;;;;24.70;100912.00;;;;2063060;28;20234;-67
2023/06/27 03:16:17;;;;;;;2.40;1.73;;;;;24.60;100900.00;;;;2055861;28;20229;-67
2023/06/27 03:17:18;;;;;;;1.80;1.53;;;;;24.70;100911.00;;;;2064549;28;20223;-67
2023/06/27 03:18:18;;;;;;;1.40;1.20;;;;;24.70;100905.00;;;;2063844;28;20211;-67
2023/06/27 03:19:18;;;;;;;1.83;1.43;;;;;24.70;100906.00;;;;2058037;28;20269;-67
2023/06/27 03:20:20;;;;;;;3.10;1.50;;;;;24.70;100896.00;;;;2058054;28;20243;-68
2023/06/27 03:21:20;;;;;;;2.20;1.97;;;;;24.70;100902.00;;;;2054434;28;20226;-67
2023/06/27 03:22:20;;;;;;;2.43;1.27;;;;;24.70;100900.00;;;;2063941;28;20454;-67
2023/06/27 03:23:21;;;;;;;4.30;1.50;;;;;24.70;100897.00;;;;2062267;28;20277;-67
2023/06/27 03:24:21;;;;;;;2.80;1.73;;;;;24.70;100902.00;;;;2060004;28;20351;-67
2023/06/27 03:25:21;;;;;;;3.60;1.40;;;;;24.70;100897.00;;;;2062905;28;20207;-67
2023/06/27 03:26:27;;;;;;;2.13;1.50;;;;;24.70;100899.00;;;;2056416;28;20229;-67
2023/06/27 03:27:28;;;;;;;2.88;1.67;;;;;24.70;100889.00;;;;2062277;28;20215;-67
2023/06/27 03:28:28;;;;;;;2.13;1.50;;;;;24.60;100897.00;;;;2055889;28;20215;-67
2023/06/27 03:29:28;;;;;;;2.13;1.47;;;;;24.60;100898.00;;;;2062355;28;20214;-67
2023/06/27 03:30:28;;;;;;;2.13;1.33;;;;;24.70;100897.00;;;;2061626;28;20243;-67
2023/06/27 03:31:29;;;;;;;2.93;1.67;;;;;24.60;100903.00;;;;2058827;28;20222;-67
2023/06/27 03:32:29;;;;;;;1.90;1.60;;;;;24.60;100898.00;;;;2058579;28;20297;-67
2023/06/27 03:33:29;;;;;;;3.00;1.87;;;;;24.70;100901.00;;;;2055407;28;20218;-67
2023/06/27 03:34:30;;;;;;;2.73;1.30;;;;;24.60;100901.00;;;;2063287;28;20245;-67
2023/06/27 03:35:30;;;;;;;2.13;1.30;;;;;24.70;100894.00;;;;2062925;28;20218;-67
2023/06/27 03:36:33;;;;;;;2.57;1.77;;;;;24.70;100902.00;;;;2052913;28;20226;-67
2023/06/27 03:37:34;;;;;;;2.72;1.60;;;;;24.70;100900.00;;;;2061205;28;20558;-67
2023/06/27 03:38:34;;;;;;;1.83;1.37;;;;;24.70;100898.00;;;;2055693;28;20274;-67
2023/06/27 03:39:35;;;;;;;2.23;1.50;;;;;24.70;100905.00;;;;2062147;28;20227;-67
2023/06/27 03:40:35;;;;;;;2.47;1.60;;;;;24.70;100902.00;;;;2056391;28;22514;-67
2023/06/27 03:41:35;;;;;;;2.07;1.50;;;;;24.70;100909.00;;;;2046291;28;20310;-67
2023/06/27 03:42:35;;;;;;;3.20;1.60;;;;;24.70;100906.00;;;;2061902;28;20246;-67
2023/06/27 03:43:36;;;;;;;2.40;1.67;;;;;24.70;100903.00;;;;2057077;28;20226;-67
2023/06/27 03:44:36;;;;;;;2.53;1.40;;;;;24.70;100902.00;;;;2062857;28;20215;-67
2023/06/27 03:45:38;;;;;;;2.30;1.30;;;;;24.70;100896.00;;;;2058261;28;20271;-67
2023/06/27 03:46:39;;;;;;;2.63;1.40;;;;;24.70;100906.00;;;;2047035;28;20230;-67
2023/06/27 03:47:39;;;;;;;2.77;1.57;;;;;24.70;100897.00;;;;2059476;28;20919;-67
2023/06/27 03:48:39;;;;;;;1.80;1.53;;;;;24.60;100900.00;;;;2056069;28;20644;-67
2023/06/27 03:49:40;;;;;;;1.93;1.40;;;;;24.60;100906.00;;;;2061458;28;20222;-67
2023/06/27 03:50:40;;;;;;;3.13;1.63;;;;;24.70;100907.00;;;;2060770;28;20799;-67
2023/06/27 03:51:40;;;;;;;2.90;1.43;;;;;24.60;100906.00;;;;2049620;28;20721;-67
2023/06/27 03:52:41;;;;;;;2.13;1.47;;;;;24.60;100905.00;;;;2067054;28;20222;-67
2023/06/27 03:53:41;;;;;;;3.03;1.60;;;;;24.60;100900.00;;;;2056406;28;20238;-67
2023/06/27 03:54:41;;;;;;;3.73;1.80;;;;;24.60;100901.00;;;;2055538;28;20223;-67
2023/06/27 03:55:42;;;;;;;3.20;1.97;;;;;24.60;100903.00;;;;2064182;28;20225;-67
2023/06/27 03:56:42;;;;;;;3.07;1.60;;;;;24.60;100901.00;;;;2052730;28;20227;-67
2023/06/27 03:57:42;;;;;;;2.07;1.50;;;;;24.60;100901.00;;;;2046805;28;20720;-67
2023/06/27 03:58:43;;;;;;;3.40;1.40;;;;;24.70;100907.00;;;;2045892;28;20735;-67
2023/06/27 03:59:43;;;;;;;3.17;1.33;;;;;24.70;100900.00;;;;2058104;28;20231;-67
2023/06/27 04:00:43;;;;;;;2.50;1.47;;;;;24.60;100896.00;;;;2059573;28;20227;-67
2023/06/27 04:01:44;;;;;;;2.23;1.40;;;;;24.60;100895.00;;;;2061626;28;20328;-67
2023/06/27 04:02:44;;;;;;;2.20;1.60;;;;;24.70;100895.00;;;;2060985;28;20235;-67
2023/06/27 04:03:45;;;;;;;2.20;1.50;;;;;24.60;100902.00;;;;2061968;28;20262;-67
2023/06/27 04:04:45;;;;;;;3.97;1.60;;;;;24.70;100896.00;;;;2061160;28;20642;-67
2023/06/27 04:05:45;;;;;;;1.87;1.67;;;;;24.60;100905.00;;;;2056434;28;20250;-67
2023/06/27 04:06:46;;;;;;;2.30;1.60;;;;;24.60;100902.00;;;;2059297;28;20593;-67
2023/06/27 04:07:46;;;;;;;2.10;1.37;;;;;24.60;100904.00;;;;2063629;28;20567;-67
2023/06/27 04:08:46;;;;;;;2.53;1.70;;;;;24.60;100902.00;;;;2065769;28;20231;-67
2023/06/27 04:09:47;;;;;;;2.70;1.60;;;;;24.60;100909.00;;;;2062564;28;20238;-67
2023/06/27 04:10:47;;;;;;;2.70;2.20;;;;;24.70;100904.00;;;;2050890;28;20223;-67
2023/06/27 04:11:47;;;;;;;3.20;1.80;;;;;24.70;100906.00;;;;2060299;28;20253;-67
2023/06/27 04:12:48;;;;;;;3.73;1.83;;;;;24.60;100892.00;;;;2060402;28;20262;-67
2023/06/27 04:13:48;;;;;;;2.00;1.33;;;;;24.60;100895.00;;;;2062752;28;20385;-67
2023/06/27 04:14:48;;;;;;;2.20;1.50;;;;;24.70;100897.00;;;;2059657;28;20240;-67
2023/06/27 04:15:49;;;;;;;3.27;1.90;;;;;24.70;100908.00;;;;2044989;28;20746;-67
2023/06/27 04:16:49;;;;;;;2.00;1.17;;;;;24.70;100901.00;;;;2065662;28;20670;-67
2023/06/27 04:17:49;;;;;;;2.90;1.57;;;;;24.70;100904.00;;;;2069018;28;20718;-67
2023/06/27 04:18:50;;;;;;;2.60;1.77;;;;;24.60;100907.00;;;;2056771;28;20683;-67
2023/06/27 04:19:50;;;;;;;2.03;1.47;;;;;24.60;100901.00;;;;2058824;28;20219;-67
2023/06/27 04:20:50;;;;;;;3.23;1.90;;;;;24.60;100902.00;;;;2048066;28;20228;-67
2023/06/27 04:21:51;;;;;;;3.37;2.00;;;;;24.60;100906.00;;;;2063362;28;20218;-67
2023/06/27 04:22:51;;;;;;;1.97;1.30;;;;;24.60;100898.00;;;;2066328;28;20217;-67
2023/06/27 04:23:53;;;;;;;2.40;1.40;;;;;24.60;100902.00;;;;2057691;28;20215;-67
2023/06/27 04:24:53;;;;;;;3.15;2.00;;;;;24.60;100900.00;;;;2061012;28;20234;-67
2023/06/27 04:26:03;;;;;;;2.33;1.70;;;;;24.70;100900.00;;;;2051835;28;20761;-67
2023/06/27 04:27:03;;;;;;;4.03;1.88;;;;;24.70;100901.00;;;;2070850;28;20206;-67
2023/06/27 04:28:04;;;;;;;2.83;1.90;;;;;24.70;100896.00;;;;2064904;28;20218;-67
2023/06/27 04:29:04;;;;;;;3.80;1.70;;;;;24.70;100901.00;;;;2059976;28;20199;-67
2023/06/27 04:30:05;;;;;;;3.13;1.80;;;;;24.60;100902.00;;;;2061005;28;20210;-67
2023/06/27 04:31:06;;;;;;;4.45;1.52;;;;;24.60;100905.00;;;;2056673;28;20248;-67
2023/06/27 04:32:07;;;;;;;4.93;1.80;;;;;24.70;100901.00;;;;2060704;28;20230;-67
2023/06/27 04:33:07;;;;;;;4.55;2.00;;;;;24.70;100904.00;;;;2062861;28;20246;-67
2023/06/27 04:34:08;;;;;;;2.43;1.50;;;;;24.70;100904.00;;;;2058708;28;20268;-67
2023/06/27 04:35:09;;;;;;;2.27;1.70;;;;;24.70;100899.00;;;;2059172;28;20238;-67
2023/06/27 04:36:10;;;;;;;3.40;1.58;;;;;24.70;100899.00;;;;2056199;28;20551;-67
2023/06/27 04:37:10;;;;;;;2.73;1.63;;;;;24.70;100896.00;;;;2069364;28;20221;-67
2023/06/27 04:38:14;;;;;;;3.03;2.00;;;;;24.70;100896.00;;;;2065143;28;20278;-67
2023/06/27 04:39:14;;;;;;;2.73;1.20;;;;;24.70;100891.00;;;;2064848;28;20213;-67
2023/06/27 04:40:15;;;;;;;3.73;1.60;;;;;24.70;100892.00;;;;2061571;28;20450;-67
2023/06/27 04:41:15;;;;;;;2.87;1.70;;;;;24.70;100900.00;;;;2053553;28;20226;-67
2023/06/27 04:42:16;;;;;;;5.80;1.90;;;;;24.70;100901.00;;;;2061694;28;20480;-67
2023/06/27 04:43:17;;;;;;;2.60;1.70;;;;;24.70;100901.00;;;;2056102;28;20219;-67
2023/06/27 04:44:17;;;;;;;4.23;2.73;;;;;24.70;100899.00;;;;2060714;28;20456;-67
2023/06/27 04:45:18;;;;;;;2.80;2.00;;;;;24.70;100900.00;;;;2063927;28;20466;-67
2023/06/27 04:46:18;;;;;;;4.27;1.90;;;;;24.70;100890.00;;;;2047925;28;20278;-67
2023/06/27 04:47:19;;;;;;;3.60;1.90;;;;;24.70;100891.00;;;;2061761;28;20265;-67
2023/06/27 04:48:19;;;;;;;4.70;1.80;;;;;24.70;100891.00;;;;2054456;28;20219;-67
2023/06/27 04:49:19;;;;;;;2.63;2.00;;;;;24.70;100890.00;;;;2060409;28;20222;-67
2023/06/27 04:50:19;;;;;;;2.50;1.90;;;;;24.70;100889.00;;;;2061672;28;20257;-67
2023/06/27 04:51:20;;;;;;;2.97;1.97;;;;;24.70;100893.00;;;;2056397;28;20217;-67
2023/06/27 04:52:20;;;;;;;3.40;1.50;;;;;24.70;100890.00;;;;2050998;28;20215;-67
2023/06/27 04:53:21;;;;;;;3.57;1.73;;;;;24.70;100901.00;;;;2056075;28;20231;-68
2023/06/27 04:54:21;;;;;;;2.73;1.70;;;;;24.70;100899.00;;;;2062271;28;20215;-68
2023/06/27 04:55:22;;;;;;;2.20;1.33;;;;;24.70;100904.00;;;;2059390;28;20694;-68
2023/06/27 04:56:22;;;;;;;3.57;2.07;;;;;24.70;100896.00;;;;2047043;28;20290;-68
2023/06/27 04:57:22;;;;;;;4.60;2.03;;;;;24.80;100898.00;;;;2062715;28;20215;-68
2023/06/27 04:58:23;;;;;;;1.93;1.73;;;;;24.80;100902.00;;;;2062670;28;20266;-69
2023/06/27 04:59:23;;;;;;;3.67;1.77;;;;;24.90;100894.00;;;;2052414;28;20234;-68
2023/06/27 05:00:24;;;;;;;2.37;1.70;;;;;24.90;100900.00;;;;2062896;28;20234;-68
2023/06/27 05:01:24;;;;;;;4.63;2.00;;;;;24.90;100897.00;;;;2052722;28;20233;-68
2023/06/27 05:02:24;;;;;;;3.73;1.77;;;;;24.90;100902.00;;;;2055055;28;20238;-68